Terminal Aerodrome Forecast
Issued by NWS

Home | Current Version | Previous Version | Graphics & Text | Print | Product List | Glossary On
Versions: 1 2 3 4 5 6 7 8 9 10 11 12 13 14 15
000
FTUS43 KTOP 260500
TAFMHK
TAF
KMHK 260520Z 2606/2706 01017G26KT P6SM OVC020
     FM261500 01014G20KT P6SM SCT025
     FM261800 01010KT P6SM SCT020=

USA.gov is the U.S. government's official web portal to all federal, state and local government web resources and services.